Time;durP1;ratioP1;P1;durP2;ratioP2;P2;SDS_P1;SDS_P2;PMS_P1;PMS_P2;Temp;Humidity;BMP_temperature;BMP_pressure;BME280_temperature;BME280_humidity;BME280_pressure;Samples;Min_cycle;Max_cycle;Signal;HPM_P1;HPM_P2
2022/03/02 00:01:52;;;;;;;122.80;62.38;;;0.70;99.90;;;;;;5094708;28;20051;-54
2022/03/02 00:04:19;;;;;;;136.25;68.55;;;0.70;99.90;;;;;;5094655;28;20373;-54
2022/03/02 00:06:45;;;;;;;132.82;65.13;;;0.60;99.90;;;;;;5094488;28;20481;-54
2022/03/02 00:09:11;;;;;;;121.07;62.75;;;0.60;99.90;;;;;;5094727;28;20028;-54
2022/03/02 00:11:37;;;;;;;130.73;65.90;;;0.50;99.90;;;;;;5094683;28;20020;-54
2022/03/02 00:14:04;;;;;;;138.93;69.32;;;0.50;99.90;;;;;;5094065;28;20445;-54
2022/03/02 00:16:30;;;;;;;148.88;77.75;;;0.50;99.90;;;;;;5094364;28;20104;-54
2022/03/02 00:18:57;;;;;;;140.98;72.50;;;0.50;99.90;;;;;;5094472;28;20427;-54
2022/03/02 00:21:24;;;;;;;145.40;74.30;;;0.40;99.90;;;;;;5094374;28;20043;-55
2022/03/02 00:23:50;;;;;;;155.63;77.25;;;0.40;99.90;;;;;;5094445;28;20533;-54
2022/03/02 00:26:16;;;;;;;149.77;75.22;;;0.40;99.90;;;;;;5094320;28;20052;-54
2022/03/02 00:28:42;;;;;;;162.38;81.22;;;0.50;99.90;;;;;;5094731;28;20052;-54
2022/03/02 00:31:08;;;;;;;175.73;83.38;;;0.50;99.90;;;;;;5110341;28;20457;-55
2022/03/02 00:33:35;;;;;;;186.38;90.00;;;0.40;99.90;;;;;;5094379;28;20102;-54
2022/03/02 00:36:01;;;;;;;160.27;77.82;;;0.30;99.90;;;;;;5094312;28;20028;-55
2022/03/02 00:38:27;;;;;;;158.90;78.93;;;0.40;99.90;;;;;;5094315;28;20036;-55
2022/03/02 00:40:53;;;;;;;179.32;83.78;;;0.30;99.90;;;;;;5094160;28;20491;-55
2022/03/02 00:43:19;;;;;;;165.18;79.28;;;0.40;99.90;;;;;;5094189;28;20028;-55
2022/03/02 00:45:45;;;;;;;184.48;89.40;;;0.30;99.90;;;;;;5094226;28;20050;-55
2022/03/02 00:48:11;;;;;;;212.15;99.47;;;0.30;99.90;;;;;;5094319;28;20024;-55
2022/03/02 00:50:38;;;;;;;221.20;102.32;;;0.20;99.90;;;;;;5094136;28;20111;-54
2022/03/02 00:53:06;;;;;;;213.27;100.75;;;0.20;99.90;;;;;;5094189;28;20024;-55
2022/03/02 00:55:33;;;;;;;199.30;93.22;;;0.20;99.90;;;;;;5094061;28;20054;-55
2022/03/02 00:58:00;;;;;;;214.90;100.78;;;0.20;99.90;;;;;;5093855;28;20573;-55
2022/03/02 01:00:26;;;;;;;224.50;102.50;;;0.10;99.90;;;;;;5094110;28;20032;-54
2022/03/02 01:02:52;;;;;;;219.35;105.10;;;0.00;99.90;;;;;;5093770;28;20031;-55
2022/03/02 01:05:18;;;;;;;239.95;108.35;;;0.10;99.90;;;;;;5093922;28;20458;-55
2022/03/02 01:07:45;;;;;;;253.38;117.60;;;0.00;99.90;;;;;;5094070;28;20072;-54
2022/03/02 01:10:11;;;;;;;222.00;103.90;;;0.10;99.90;;;;;;5094103;28;20035;-54
2022/03/02 01:12:39;;;;;;;223.88;104.18;;;0.10;99.90;;;;;;5093921;28;20028;-54
2022/03/02 01:15:06;;;;;;;210.63;97.90;;;0.10;99.90;;;;;;5094318;28;20042;-54
2022/03/02 01:17:32;;;;;;;223.02;102.75;;;0.10;99.90;;;;;;5093773;28;20441;-55
2022/03/02 01:19:59;;;;;;;637.33;254.05;;;0.10;99.90;;;;;;5094022;28;20101;-54
2022/03/02 01:22:25;;;;;;;743.97;310.63;;;0.10;99.90;;;;;;5093802;28;20097;-54
2022/03/02 01:24:51;;;;;;;549.58;213.57;;;0.10;99.90;;;;;;5093796;28;20081;-54
2022/03/02 01:27:17;;;;;;;580.72;230.48;;;0.10;99.90;;;;;;5097377;28;20040;-55
2022/03/02 01:29:43;;;;;;;607.83;241.20;;;0.10;99.90;;;;;;5097587;28;20034;-55
2022/03/02 01:32:10;;;;;;;627.88;250.23;;;0.20;99.90;;;;;;5097181;28;20024;-54
2022/03/02 01:34:36;;;;;;;532.35;214.43;;;0.20;99.90;;;;;;5097322;28;20074;-55
2022/03/02 01:37:03;;;;;;;462.25;176.63;;;0.20;99.90;;;;;;5097249;28;20036;-55
2022/03/02 01:39:29;;;;;;;497.98;191.48;;;0.30;99.90;;;;;;5096945;28;20035;-54
2022/03/02 01:41:55;;;;;;;443.10;172.50;;;0.40;99.90;;;;;;5097305;28;20023;-54
2022/03/02 01:44:21;;;;;;;393.58;151.70;;;0.30;99.90;;;;;;5097178;28;20032;-55
2022/03/02 01:46:48;;;;;;;357.33;142.50;;;0.20;99.90;;;;;;5096901;28;20098;-55
2022/03/02 01:49:14;;;;;;;328.90;135.25;;;0.30;99.90;;;;;;5096991;28;20024;-55
2022/03/02 01:51:40;;;;;;;319.38;133.05;;;0.30;99.90;;;;;;5097088;28;20458;-54
2022/03/02 01:54:06;;;;;;;314.38;130.10;;;0.20;99.90;;;;;;5096815;28;20077;-55
2022/03/02 01:56:33;;;;;;;323.50;127.47;;;0.10;99.90;;;;;;5096861;28;20464;-54
2022/03/02 01:59:00;;;;;;;278.00;119.22;;;-0.20;99.90;;;;;;5096707;28;20044;-55
2022/03/02 02:01:26;;;;;;;243.15;106.80;;;-0.30;99.90;;;;;;5096814;28;20442;-54
2022/03/02 02:03:52;;;;;;;234.35;103.05;;;-0.30;99.90;;;;;;5096736;28;20032;-54
2022/03/02 02:06:18;;;;;;;214.25;92.10;;;-0.30;99.90;;;;;;5096737;28;20032;-54
2022/03/02 02:08:45;;;;;;;216.82;93.63;;;-0.40;99.90;;;;;;5096663;28;20020;-54
2022/03/02 02:11:13;;;;;;;219.00;96.53;;;-0.40;99.90;;;;;;5096672;28;20409;-54
2022/03/02 02:13:39;;;;;;;237.88;98.72;;;-0.60;99.90;;;;;;5096602;28;20546;-55
2022/03/02 02:16:06;;;;;;;203.15;90.35;;;-0.60;99.90;;;;;;5096395;28;20139;-55
2022/03/02 02:18:34;;;;;;;243.77;105.07;;;-0.60;99.90;;;;;;5095426;28;20021;-54
2022/03/02 02:21:07;;;;;;;363.67;134.57;;;-0.50;99.90;;;;;;5096317;28;20129;-54
2022/03/02 02:23:35;;;;;;;348.08;132.07;;;-0.50;99.90;;;;;;5096410;28;20094;-54
2022/03/02 02:26:01;;;;;;;347.15;137.18;;;-0.60;99.90;;;;;;5096366;28;20469;-54
2022/03/02 02:28:30;;;;;;;346.63;131.32;;;-0.70;99.90;;;;;;5096225;28;20032;-54
2022/03/02 02:30:58;;;;;;;312.10;126.45;;;-0.70;99.90;;;;;;5096669;28;20476;-54
2022/03/02 02:33:25;;;;;;;277.63;112.95;;;-0.70;99.90;;;;;;5096348;28;20039;-54
2022/03/02 02:35:51;;;;;;;278.20;117.35;;;-0.70;99.90;;;;;;5095811;28;20389;-54
2022/03/02 02:38:18;;;;;;;264.67;113.32;;;-0.60;99.90;;;;;;5096039;28;20032;-54
2022/03/02 02:40:44;;;;;;;276.45;111.28;;;-0.70;99.90;;;;;;5096220;28;20046;-54
2022/03/02 02:43:10;;;;;;;272.10;111.53;;;-0.70;99.90;;;;;;5095942;28;20460;-55
2022/03/02 02:45:37;;;;;;;264.33;105.93;;;-0.70;99.90;;;;;;5095871;28;20088;-54
2022/03/02 02:48:04;;;;;;;258.60;102.45;;;-0.70;99.90;;;;;;5095937;28;20083;-54
2022/03/02 02:50:32;;;;;;;254.85;105.65;;;-0.80;99.90;;;;;;5095767;28;20556;-54
2022/03/02 02:53:04;;;;;;;206.73;90.32;;;-0.80;99.90;;;;;;5095776;28;20115;-54
2022/03/02 02:55:31;;;;;;;208.20;90.47;;;-0.90;99.90;;;;;;5095723;28;20058;-55
2022/03/02 02:57:58;;;;;;;192.15;84.50;;;-0.90;99.90;;;;;;5095434;28;20382;-55
2022/03/02 03:00:29;;;;;;;198.18;86.78;;;-0.90;99.90;;;;;;5095333;28;20184;-54
2022/03/02 03:02:55;;;;;;;;;;;-0.90;99.90;;;;;;5096054;28;20102;-54
2022/03/02 03:05:23;;;;;;;205.98;90.55;;;-1.00;99.90;;;;;;5095648;28;19908;-54
2022/03/02 03:07:51;;;;;;;217.18;95.78;;;-1.30;99.90;;;;;;5095464;28;20020;-54
2022/03/02 03:10:18;;;;;;;219.38;95.22;;;-1.20;99.90;;;;;;5095564;28;20125;-54
2022/03/02 03:12:46;;;;;;;226.80;95.95;;;-1.30;99.90;;;;;;5095254;28;20036;-55
2022/03/02 03:15:14;;;;;;;229.77;96.72;;;-1.30;99.90;;;;;;5095241;28;20040;-54
2022/03/02 03:17:40;;;;;;;226.20;96.40;;;-1.20;99.90;;;;;;5095372;28;20028;-54
2022/03/02 03:20:10;;;;;;;224.88;102.80;;;-1.10;99.90;;;;;;5095131;28;20044;-54
2022/03/02 03:22:36;;;;;;;233.27;103.25;;;-1.00;99.90;;;;;;5095291;28;20035;-55
2022/03/02 03:25:04;;;;;;;230.43;102.95;;;-0.90;99.90;;;;;;5095335;28;20103;-54
2022/03/02 03:27:30;;;;;;;225.85;104.22;;;-0.80;99.90;;;;;;5095066;28;20055;-55
2022/03/02 03:29:56;;;;;;;242.25;108.43;;;-0.70;99.90;;;;;;5095058;28;20052;-55
2022/03/02 03:32:22;;;;;;;248.00;104.85;;;-0.60;99.90;;;;;;5095152;28;20430;-54
2022/03/02 03:34:49;;;;;;;235.27;109.03;;;-0.60;99.90;;;;;;5095332;28;20064;-55
2022/03/02 03:37:15;;;;;;;242.63;103.60;;;-0.50;99.90;;;;;;5095147;28;20039;-55
2022/03/02 03:39:42;;;;;;;241.07;101.78;;;-0.50;99.90;;;;;;5094959;28;20198;-54
2022/03/02 03:42:09;;;;;;;234.00;96.53;;;-0.40;99.90;;;;;;5095150;28;20035;-55
2022/03/02 03:44:36;;;;;;;225.98;94.78;;;-0.40;99.90;;;;;;5094860;28;20035;-55
2022/03/02 03:47:02;;;;;;;231.18;88.72;;;-0.40;99.90;;;;;;5094926;28;20024;-55
2022/03/02 03:49:28;;;;;;;231.15;91.45;;;-0.50;99.90;;;;;;5094142;28;20085;-54
2022/03/02 03:51:54;;;;;;;241.45;93.18;;;-0.30;99.90;;;;;;5094863;28;20036;-55
2022/03/02 03:54:21;;;;;;;244.65;94.93;;;-0.20;99.90;;;;;;5094694;28;20036;-55
2022/03/02 03:56:48;;;;;;;251.90;96.85;;;-0.20;99.90;;;;;;5094466;28;20097;-54
2022/03/02 03:59:13;;;;;;;245.25;95.68;;;-0.20;99.90;;;;;;5094576;28;20105;-55
2022/03/02 04:01:39;;;;;;;259.27;102.30;;;-0.20;99.90;;;;;;5094757;28;20028;-55
2022/03/02 04:04:06;;;;;;;264.63;106.18;;;-0.10;99.90;;;;;;5094668;28;20477;-54
2022/03/02 04:06:32;;;;;;;266.92;101.32;;;0.10;99.90;;;;;;5094673;28;20024;-55
2022/03/02 04:08:58;;;;;;;252.70;97.85;;;0.00;99.90;;;;;;5094442;28;20039;-54
2022/03/02 04:11:24;;;;;;;250.75;93.57;;;0.00;99.90;;;;;;5094591;28;20031;-55
2022/03/02 04:13:50;;;;;;;255.95;96.15;;;0.00;99.90;;;;;;5094576;28;20073;-55
2022/03/02 04:16:16;;;;;;;257.15;93.50;;;-0.10;99.90;;;;;;5094367;28;20028;-55
2022/03/02 04:18:42;;;;;;;251.38;95.30;;;0.00;99.90;;;;;;5094585;28;20043;-55
2022/03/02 04:21:08;;;;;;;261.42;97.63;;;0.10;99.90;;;;;;5094534;28;20035;-55
2022/03/02 04:23:35;;;;;;;253.23;98.78;;;0.10;99.90;;;;;;5094368;28;20060;-55
2022/03/02 04:26:01;;;;;;;229.20;92.32;;;0.00;99.90;;;;;;5094220;28;20058;-55
2022/03/02 04:28:29;;;;;;;265.23;97.25;;;0.10;99.90;;;;;;5094410;28;20055;-55
2022/03/02 04:30:55;;;;;;;251.15;95.68;;;0.10;99.90;;;;;;5094405;28;20028;-55
2022/03/02 04:33:21;;;;;;;289.33;105.30;;;0.10;99.90;;;;;;5076343;28;20366;-54
2022/03/02 04:35:47;;;;;;;257.63;96.53;;;0.20;99.90;;;;;;5094451;28;20059;-55
2022/03/02 04:38:15;;;;;;;264.65;100.03;;;0.20;99.90;;;;;;5094151;28;20481;-55
2022/03/02 04:40:41;;;;;;;255.63;100.00;;;0.20;99.90;;;;;;5094046;28;20032;-55
2022/03/02 04:43:07;;;;;;;272.05;101.25;;;0.20;99.90;;;;;;5094320;28;20095;-55
2022/03/02 04:45:34;;;;;;;282.77;100.07;;;0.10;99.90;;;;;;5094194;28;20039;-55
2022/03/02 04:48:00;;;;;;;280.83;103.40;;;0.10;99.90;;;;;;5094156;28;20375;-55
2022/03/02 04:50:27;;;;;;;273.02;100.15;;;0.10;99.90;;;;;;5094374;28;20044;-55
2022/03/02 04:52:55;;;;;;;277.45;100.50;;;0.00;99.90;;;;;;5094236;28;20036;-55
2022/03/02 04:55:22;;;;;;;278.83;97.53;;;0.00;99.90;;;;;;5094077;28;20035;-55
2022/03/02 04:57:49;;;;;;;261.73;98.57;;;0.00;99.90;;;;;;5094151;28;20028;-55
2022/03/02 05:00:27;;;;;;;262.58;94.80;;;0.10;99.90;;;;;;5096261;28;20034;-55
2022/03/02 05:02:54;;;;;;;274.10;97.15;;;0.10;99.90;;;;;;5098056;28;20085;-55
2022/03/02 05:05:22;;;;;;;265.02;95.85;;;0.00;99.90;;;;;;5097683;28;20028;-55
2022/03/02 05:07:49;;;;;;;270.80;95.25;;;-0.30;99.90;;;;;;5097755;28;20402;-54
2022/03/02 05:10:18;;;;;;;264.80;94.43;;;-0.30;99.90;;;;;;5097951;28;20413;-54
2022/03/02 05:12:44;;;;;;;268.90;95.72;;;-0.40;99.90;;;;;;5097555;28;20048;-55
2022/03/02 05:15:12;;;;;;;273.75;95.32;;;-0.50;99.90;;;;;;5097705;28;20089;-55
2022/03/02 05:17:39;;;;;;;248.88;92.45;;;-0.60;99.90;;;;;;5097650;28;20100;-55
2022/03/02 05:20:08;;;;;;;259.20;95.50;;;-0.60;99.90;;;;;;5097335;28;20389;-54
2022/03/02 05:22:34;;;;;;;262.63;98.45;;;-0.70;99.90;;;;;;5097507;28;20047;-55
2022/03/02 05:25:00;;;;;;;284.05;100.72;;;-0.70;99.90;;;;;;5097386;28;20027;-55
2022/03/02 05:27:26;;;;;;;287.20;103.35;;;-0.70;99.90;;;;;;5097430;28;20024;-55
2022/03/02 05:29:52;;;;;;;339.58;112.75;;;-0.80;99.90;;;;;;5097388;28;20024;-55
2022/03/02 05:32:18;;;;;;;344.15;113.72;;;-0.80;99.90;;;;;;5097435;28;20042;-55
2022/03/02 05:34:44;;;;;;;318.05;110.63;;;-0.80;99.90;;;;;;5097043;28;20038;-55
2022/03/02 05:37:10;;;;;;;308.00;111.35;;;-0.80;99.90;;;;;;5097257;28;20481;-55
2022/03/02 05:39:36;;;;;;;306.95;107.32;;;-0.70;99.90;;;;;;5097317;28;20056;-55
2022/03/02 05:42:03;;;;;;;306.63;106.43;;;-0.60;99.90;;;;;;5097232;28;20355;-55
2022/03/02 05:44:30;;;;;;;297.63;107.82;;;-0.70;99.90;;;;;;5097006;28;20020;-54
2022/03/02 05:46:56;;;;;;;286.08;104.30;;;-0.60;99.90;;;;;;5097059;28;20099;-55
2022/03/02 05:49:21;;;;;;;270.58;101.28;;;-0.50;99.90;;;;;;5096815;28;20024;-55
2022/03/02 05:51:47;;;;;;;326.50;116.88;;;-0.50;99.90;;;;;;5096938;28;20035;-55
2022/03/02 05:54:13;;;;;;;380.17;133.73;;;-0.50;99.90;;;;;;5096864;28;20443;-55
2022/03/02 05:56:40;;;;;;;343.20;121.05;;;-0.50;99.90;;;;;;5096782;28;20028;-55
2022/03/02 05:59:08;;;;;;;329.63;117.18;;;-0.40;99.90;;;;;;5096675;28;20055;-55
2022/03/02 06:01:35;;;;;;;348.15;131.73;;;-0.30;99.90;;;;;;5096727;28;20035;-55
2022/03/02 06:04:02;;;;;;;324.40;125.43;;;-0.40;99.90;;;;;;5096553;28;20109;-55
2022/03/02 06:06:32;;;;;;;330.65;127.13;;;-0.20;99.90;;;;;;5096892;28;20054;-55
2022/03/02 06:09:00;;;;;;;321.02;121.82;;;-0.20;99.90;;;;;;5097245;28;20039;-55
2022/03/02 06:11:27;;;;;;;300.45;120.22;;;-0.10;99.90;;;;;;5096660;28;20359;-55
2022/03/02 06:13:54;;;;;;;315.70;123.70;;;-0.10;99.90;;;;;;5096597;28;20401;-55
2022/03/02 06:16:20;;;;;;;338.33;122.95;;;0.00;99.90;;;;;;5100770;28;20039;-55
2022/03/02 06:18:47;;;;;;;303.92;118.65;;;0.00;99.90;;;;;;5101335;28;20058;-55
2022/03/02 06:21:17;;;;;;;398.75;143.27;;;0.10;99.90;;;;;;5095977;28;20039;-54
2022/03/02 06:23:44;;;;;;;381.70;146.45;;;0.20;99.90;;;;;;5101503;28;20431;-55
2022/03/02 06:26:10;;;;;;;367.55;133.13;;;0.20;99.90;;;;;;5100291;28;20028;-56
2022/03/02 06:28:36;;;;;;;348.80;131.75;;;0.10;99.90;;;;;;5092916;28;20051;-58
2022/03/02 06:31:02;;;;;;;284.33;104.47;;;0.10;99.90;;;;;;5107424;27;20031;-56
2022/03/02 06:33:28;;;;;;;314.15;121.22;;;0.10;99.90;;;;;;5108049;28;20023;-58
2022/03/02 06:35:54;;;;;;;345.67;130.40;;;0.30;99.90;;;;;;5118843;27;20054;-57
2022/03/02 06:38:22;;;;;;;414.58;153.27;;;0.30;99.90;;;;;;5105159;28;20436;-56
2022/03/02 06:41:19;;;;;;;386.60;141.98;;;0.30;99.90;;;;;;5104933;28;20043;-56
2022/03/02 06:44:01;;;;;;;352.73;136.27;;;0.30;99.90;;;;;;5096709;28;20092;-55
2022/03/02 06:46:37;;;;;;;322.08;124.38;;;0.30;99.90;;;;;;5108682;28;20035;-56
2022/03/02 06:49:16;;;;;;;326.42;124.53;;;0.40;99.90;;;;;;5102975;28;20038;-55
2022/03/02 06:51:45;;;;;;;361.92;133.25;;;0.40;99.90;;;;;;5102656;28;20059;-55
2022/03/02 06:54:12;;;;;;;315.88;122.60;;;0.50;99.90;;;;;;5110482;28;20031;-55
2022/03/02 06:56:49;;;;;;;331.67;125.18;;;0.60;99.90;;;;;;5114635;28;20080;-56
2022/03/02 06:59:29;;;;;;;303.33;119.80;;;0.80;99.90;;;;;;5108626;27;20117;-56
2022/03/02 07:02:01;;;;;;;310.75;122.28;;;0.80;99.90;;;;;;5109453;27;20084;-56
2022/03/02 07:04:30;;;;;;;296.52;119.38;;;0.90;99.90;;;;;;5089720;28;20028;-55
2022/03/02 07:06:58;;;;;;;275.38;112.68;;;1.00;99.90;;;;;;5078564;28;20023;-57
2022/03/02 07:09:24;;;;;;;261.45;106.45;;;1.00;99.90;;;;;;5091798;28;20016;-56
2022/03/02 07:11:52;;;;;;;260.08;103.28;;;1.00;99.90;;;;;;5109103;28;20256;-57
2022/03/02 07:14:20;;;;;;;262.63;108.80;;;1.10;99.90;;;;;;5099757;27;20489;-56
2022/03/02 07:16:46;;;;;;;265.20;111.53;;;1.30;99.90;;;;;;5101938;28;20421;-57
2022/03/02 07:19:12;;;;;;;265.75;114.18;;;1.30;99.90;;;;;;5110346;28;20107;-56
2022/03/02 07:21:43;;;;;;;276.17;118.10;;;1.40;99.90;;;;;;5097808;28;20524;-55
2022/03/02 07:24:19;;;;;;;265.73;123.22;;;1.50;99.90;;;;;;5105284;28;20027;-56
2022/03/02 07:26:57;;;;;;;281.27;121.88;;;1.50;99.90;;;;;;5111667;28;20030;-57
2022/03/02 07:29:28;;;;;;;261.40;115.32;;;1.70;99.90;;;;;;5100101;27;20031;-57
2022/03/02 07:31:57;;;;;;;220.57;94.50;;;1.90;99.90;;;;;;5090264;28;20043;-57
2022/03/02 07:34:26;;;;;;;216.02;88.82;;;2.00;99.90;;;;;;5111745;28;20027;-58
2022/03/02 07:36:53;;;;;;;221.50;89.70;;;2.10;99.90;;;;;;5108400;28;20015;-60
2022/03/02 07:39:20;;;;;;;227.85;92.53;;;2.10;99.90;;;;;;5097639;27;20091;-59
2022/03/02 07:41:48;;;;;;;229.88;95.07;;;2.30;99.90;;;;;;5083917;28;20047;-58
2022/03/02 07:44:17;;;;;;;238.85;99.05;;;2.60;99.90;;;;;;5097170;28;20040;-58
2022/03/02 07:46:45;;;;;;;260.20;104.70;;;2.90;99.90;;;;;;5102474;28;20038;-58
2022/03/02 07:49:12;;;;;;;250.75;102.88;;;3.20;99.90;;;;;;5102786;28;20039;-58
2022/03/02 07:51:39;;;;;;;249.10;105.55;;;3.70;99.90;;;;;;5099411;28;20088;-59
2022/03/02 07:54:06;;;;;;;262.42;102.35;;;4.20;99.90;;;;;;5098072;28;20099;-57
2022/03/02 07:56:33;;;;;;;264.33;107.22;;;4.50;99.90;;;;;;5108581;27;20026;-57
2022/03/02 07:59:07;;;;;;;265.08;105.35;;;4.90;99.90;;;;;;5112371;27;20374;-57
2022/03/02 08:01:37;;;;;;;283.45;112.65;;;5.30;99.90;;;;;;5098603;28;20020;-60
2022/03/02 08:04:06;;;;;;;209.43;83.88;;;5.60;99.90;;;;;;5106199;28;20040;-59
2022/03/02 08:06:35;;;;;;;234.30;87.82;;;5.80;99.90;;;;;;5100317;27;20031;-59
2022/03/02 08:09:06;;;;;;;200.73;78.72;;;6.60;99.90;;;;;;5071400;28;20047;-58
2022/03/02 08:11:34;;;;;;;178.13;71.32;;;7.10;99.90;;;;;;5111748;28;20034;-59
2022/03/02 08:14:01;;;;;;;184.18;74.93;;;7.00;99.90;;;;;;5109089;28;20038;-58
2022/03/02 08:16:28;;;;;;;173.00;71.40;;;6.90;99.90;;;;;;5107154;28;20027;-59
2022/03/02 08:18:55;;;;;;;174.13;73.78;;;6.80;99.90;;;;;;5105307;28;20396;-58
2022/03/02 08:21:22;;;;;;;179.15;73.63;;;6.30;99.90;;;;;;5111530;28;20419;-58
2022/03/02 08:23:51;;;;;;;173.98;70.03;;;6.40;99.90;;;;;;5112206;28;20103;-58
2022/03/02 08:26:20;;;;;;;182.07;71.28;;;6.70;99.90;;;;;;5113816;28;20055;-58
2022/03/02 08:28:55;;;;;;;191.15;76.03;;;6.90;99.90;;;;;;5097819;28;20039;-58
2022/03/02 08:31:25;;;;;;;180.80;72.82;;;6.70;99.90;;;;;;5108534;28;20543;-58
2022/03/02 08:33:51;;;;;;;171.55;72.07;;;6.90;99.90;;;;;;5106925;28;20516;-58
2022/03/02 08:36:21;;;;;;;164.13;67.50;;;7.20;99.90;;;;;;5108139;28;20027;-59
2022/03/02 08:38:52;;;;;;;114.63;49.05;;;8.00;99.90;;;;;;5110591;27;20081;-59
2022/03/02 08:41:19;;;;;;;108.00;49.95;;;8.20;99.90;;;;;;5107690;28;20039;-59
2022/03/02 08:43:47;;;;;;;109.63;44.90;;;7.60;99.90;;;;;;5106626;28;20054;-59
2022/03/02 08:46:13;;;;;;;89.78;43.20;;;7.80;99.90;;;;;;5104037;28;20036;-59
2022/03/02 08:48:40;;;;;;;93.00;45.13;;;8.20;99.90;;;;;;5113337;27;20024;-59
2022/03/02 08:51:10;;;;;;;92.75;41.83;;;8.70;99.90;;;;;;5105551;27;20755;-59
2022/03/02 08:53:38;;;;;;;105.65;41.00;;;9.30;99.90;;;;;;5113863;27;20061;-59
2022/03/02 08:56:06;;;;;;;70.35;33.70;;;9.70;99.90;;;;;;5120320;27;20030;-59
2022/03/02 08:58:33;;;;;;;65.68;32.13;;;10.40;98.20;;;;;;5114854;28;20043;-60
2022/03/02 09:01:00;;;;;;;66.40;33.80;;;9.80;97.30;;;;;;5109772;28;20091;-59
2022/03/02 09:03:33;;;;;;;73.97;38.58;;;9.80;98.80;;;;;;5106780;27;20085;-60
2022/03/02 09:06:02;;;;;;;81.50;39.25;;;9.40;98.00;;;;;;5103129;28;20028;-60
2022/03/02 09:08:28;;;;;;;105.50;49.25;;;8.70;98.70;;;;;;5099763;28;20024;-59
2022/03/02 09:10:54;;;;;;;94.28;48.25;;;8.40;99.50;;;;;;5098645;28;20028;-60
2022/03/02 09:13:24;;;;;;;99.60;50.28;;;8.20;99.80;;;;;;5099074;28;20148;-60
2022/03/02 09:15:50;;;;;;;124.70;54.60;;;8.10;99.90;;;;;;5113682;27;20042;-60
2022/03/02 09:18:16;;;;;;;117.30;54.58;;;8.00;99.90;;;;;;5114590;28;20031;-60
2022/03/02 09:20:43;;;;;;;130.18;59.53;;;8.20;99.90;;;;;;5113452;28;20036;-59
2022/03/02 09:23:13;;;;;;;127.75;58.70;;;8.10;99.90;;;;;;5091601;28;20054;-59
2022/03/02 09:25:41;;;;;;;117.38;55.85;;;9.30;99.90;;;;;;5111705;27;20089;-59
2022/03/02 09:28:11;;;;;;;105.47;52.40;;;10.40;98.90;;;;;;5112391;28;20346;-59
2022/03/02 09:30:38;;;;;;;79.55;40.45;;;10.50;96.80;;;;;;5117659;28;20043;-59
2022/03/02 09:33:10;;;;;;;71.97;38.17;;;10.70;95.10;;;;;;5110390;28;20039;-60
2022/03/02 09:35:37;;;;;;;56.42;32.17;;;9.50;95.90;;;;;;5096958;28;20075;-59
2022/03/02 09:38:03;;;;;;;72.47;36.63;;;9.80;98.10;;;;;;5096660;28;20028;-59
2022/03/02 09:40:31;;;;;;;76.80;36.65;;;9.40;95.90;;;;;;5097132;28;20451;-59
2022/03/02 09:43:00;;;;;;;62.33;31.38;;;9.60;97.90;;;;;;5104678;28;20080;-59
2022/03/02 09:45:28;;;;;;;65.00;34.00;;;10.10;96.80;;;;;;5116881;28;20028;-59
2022/03/02 09:48:00;;;;;;;67.55;31.13;;;9.80;95.60;;;;;;5115878;27;20019;-59
2022/03/02 09:50:33;;;;;;;74.30;35.90;;;10.30;95.90;;;;;;5114966;27;20032;-59
2022/03/02 09:53:08;;;;;;;45.30;25.60;;;10.70;94.80;;;;;;5107330;28;20051;-59
2022/03/02 09:55:36;;;;;;;57.00;26.35;;;10.70;92.30;;;;;;5123915;27;20059;-56
2022/03/02 09:58:03;;;;;;;70.10;34.20;;;10.80;92.40;;;;;;5107069;27;20075;-56
2022/03/02 10:00:30;;;;;;;66.03;33.80;;;11.40;93.30;;;;;;5107204;27;20088;-55
2022/03/02 10:02:58;;;;;;;57.72;34.33;;;11.80;91.80;;;;;;5097668;28;20043;-55
2022/03/02 10:05:30;;;;;;;73.97;36.65;;;12.60;90.00;;;;;;5113202;28;20040;-55
2022/03/02 10:08:01;;;;;;;44.08;21.50;;;13.00;85.30;;;;;;5115770;27;20110;-55
2022/03/02 10:10:36;;;;;;;39.60;18.67;;;12.20;80.50;;;;;;5116357;27;20636;-55
2022/03/02 10:13:08;;;;;;;29.25;16.75;;;12.70;80.90;;;;;;5111005;28;20030;-55
2022/03/02 10:15:36;;;;;;;41.85;18.63;;;13.70;74.30;;;;;;5115324;27;20425;-55
2022/03/02 10:18:05;;;;;;;37.10;15.98;;;13.30;74.30;;;;;;5114935;28;20115;-55
2022/03/02 10:20:35;;;;;;;30.23;16.75;;;13.50;64.60;;;;;;5105115;28;20467;-54
2022/03/02 10:23:18;;;;;;;37.03;18.48;;;12.70;66.90;;;;;;5109146;28;20026;-54
2022/03/02 10:26:20;;;;;;;26.48;17.33;;;12.00;77.70;;;;;;5093365;28;20480;-54
2022/03/02 10:29:04;;;;;;;35.58;20.95;;;11.10;77.20;;;;;;5093464;28;20039;-55
2022/03/02 10:31:41;;;;;;;35.35;21.60;;;10.60;86.70;;;;;;5115943;28;20022;-54
2022/03/02 10:34:21;;;;;;;50.42;22.52;;;10.90;91.20;;;;;;5096063;28;20032;-55
2022/03/02 10:36:50;;;;;;;30.95;20.30;;;11.60;92.30;;;;;;5117656;27;20031;-55
2022/03/02 10:39:28;;;;;;;37.08;19.58;;;12.10;82.50;;;;;;5112741;28;20059;-55
2022/03/02 10:42:04;;;;;;;43.80;19.90;;;11.10;81.40;;;;;;5103839;28;20067;-54
2022/03/02 10:44:48;;;;;;;33.10;17.58;;;10.60;79.30;;;;;;5102919;27;20035;-55
2022/03/02 10:47:20;;;;;;;37.78;19.05;;;10.50;89.00;;;;;;5104963;28;20044;-55
2022/03/02 10:49:48;;;;;;;37.22;20.20;;;10.70;92.10;;;;;;5097703;28;20043;-55
2022/03/02 10:52:14;;;;;;;55.88;34.22;;;11.30;87.60;;;;;;5110516;27;20106;-55
2022/03/02 10:54:42;;;;;;;48.00;31.35;;;10.80;90.30;;;;;;5100568;28;20055;-55
2022/03/02 10:57:12;;;;;;;46.60;31.65;;;10.60;92.50;;;;;;5098798;27;20473;-54
2022/03/02 10:59:43;;;;;;;60.47;35.07;;;10.10;90.80;;;;;;5105176;28;20408;-54
2022/03/02 11:02:09;;;;;;;;;;;10.70;93.10;;;;;;5108349;28;20274;-55
2022/03/02 11:04:46;;;;;;;47.78;31.08;;;12.10;90.80;;;;;;5106952;27;20380;-55
2022/03/02 11:07:16;;;;;;;50.00;32.80;;;13.10;78.10;;;;;;5102862;28;20084;-55
2022/03/02 11:09:50;;;;;;;55.40;37.40;;;13.50;66.70;;;;;;5100580;28;20024;-55
2022/03/02 11:12:20;;;;;;;56.80;39.13;;;13.20;60.40;;;;;;5101387;27;20027;-55
2022/03/02 11:14:56;;;;;;;69.60;41.13;;;12.90;63.20;;;;;;5083174;28;20275;-55
2022/03/02 11:17:23;;;;;;;61.40;36.00;;;12.80;66.60;;;;;;5112928;28;20048;-55
2022/03/02 11:19:49;;;;;;;55.45;35.47;;;12.90;76.80;;;;;;5116132;28;20042;-55
2022/03/02 11:22:17;;;;;;;39.05;25.05;;;13.60;63.90;;;;;;5116234;28;20031;-55
2022/03/02 11:24:45;;;;;;;42.33;25.85;;;14.40;69.20;;;;;;5116112;28;20444;-55
2022/03/02 11:27:45;;;;;;;80.65;31.42;;;13.70;54.10;;;;;;5104533;28;20028;-55
2022/03/02 11:30:16;;;;;;;41.60;27.10;;;13.20;64.50;;;;;;5041385;28;20062;-55
2022/03/02 11:32:46;;;;;;;55.00;31.05;;;13.20;55.20;;;;;;5115399;28;20027;-54
2022/03/02 11:35:16;;;;;;;48.00;27.63;;;12.90;61.20;;;;;;5115013;28;20038;-54
2022/03/02 11:37:43;;;;;;;50.45;27.15;;;12.50;67.60;;;;;;5107308;28;20081;-55
2022/03/02 11:40:13;;;;;;;47.75;24.95;;;12.90;66.50;;;;;;5106091;28;20432;-54
2022/03/02 11:42:42;;;;;;;40.25;24.17;;;13.00;61.00;;;;;;5101664;28;20023;-55
2022/03/02 11:45:12;;;;;;;37.55;24.15;;;12.80;56.40;;;;;;5089122;28;20474;-56
2022/03/02 11:47:45;;;;;;;38.33;24.37;;;13.10;59.50;;;;;;5104466;28;20072;-55
2022/03/02 11:50:12;;;;;;;36.50;23.83;;;12.90;61.00;;;;;;5109165;28;20031;-55
2022/03/02 11:52:46;;;;;;;31.75;19.58;;;12.70;57.90;;;;;;5104581;28;20051;-55
2022/03/02 11:55:17;;;;;;;29.02;19.45;;;12.20;61.60;;;;;;5106817;27;20413;-55
2022/03/02 11:57:49;;;;;;;29.63;19.27;;;12.20;61.60;;;;;;5114511;27;20028;-56
2022/03/02 12:00:19;;;;;;;30.63;18.55;;;12.40;60.30;;;;;;5099953;28;20028;-55
2022/03/02 12:02:47;;;;;;;31.70;19.25;;;12.40;58.40;;;;;;5100904;28;20043;-55
2022/03/02 12:05:15;;;;;;;39.15;21.45;;;12.20;76.80;;;;;;5098315;28;20236;-55
2022/03/02 12:07:42;;;;;;;30.77;18.25;;;11.70;71.90;;;;;;5102472;28;20023;-55
2022/03/02 12:10:24;;;;;;;41.22;20.30;;;11.70;62.70;;;;;;5105836;28;20076;-55
2022/03/02 12:12:52;;;;;;;41.55;22.13;;;11.50;65.90;;;;;;5107564;28;20023;-55
2022/03/02 12:15:19;;;;;;;37.05;20.95;;;12.30;58.70;;;;;;5112723;28;20035;-55
2022/03/02 12:17:48;;;;;;;38.63;20.85;;;12.20;60.30;;;;;;5107449;28;20524;-54
2022/03/02 12:20:16;;;;;;;36.17;20.90;;;11.90;65.60;;;;;;5112000;28;20028;-55
2022/03/02 12:22:45;;;;;;;30.30;19.25;;;11.40;74.40;;;;;;5104710;28;20015;-55
2022/03/02 12:25:17;;;;;;;28.08;15.77;;;11.40;72.80;;;;;;5101023;28;20488;-55
2022/03/02 12:27:56;;;;;;;27.35;16.15;;;12.10;63.90;;;;;;5104145;28;20057;-55